Time;durP1;ratioP1;P1;durP2;ratioP2;P2;SDS_P1;SDS_P2;PMS_P1;PMS_P2;Temp;Humidity;BMP_temperature;BMP_pressure;BME280_temperature;BME280_humidity;BME280_pressure;Samples;Min_cycle;Max_cycle;Signal;HPM_P1;HPM_P2
2024/01/26 00:00:27;;;;;;;2.17;1.63;;;;;;;9.39;100.00;99616.19;4168946;28;20217;-51
2024/01/26 00:02:30;;;;;;;2.22;1.95;;;;;;;9.48;100.00;99620.38;4170619;28;20262;-51
2024/01/26 00:04:32;;;;;;;7.53;3.42;;;;;;;9.40;100.00;99617.84;4174119;28;20212;-50
2024/01/26 00:06:34;;;;;;;2.20;1.73;;;;;;;9.37;100.00;99612.84;4170901;28;20212;-50
2024/01/26 00:08:36;;;;;;;2.05;1.85;;;;;;;9.34;100.00;99613.28;4169436;28;20735;-51
2024/01/26 00:10:37;;;;;;;1.67;1.50;;;;;;;9.37;100.00;99613.69;4167943;28;20231;-51
2024/01/26 00:12:39;;;;;;;2.08;1.88;;;;;;;9.35;100.00;99610.31;4170459;28;20663;-51
2024/01/26 00:14:42;;;;;;;2.65;2.45;;;;;;;9.34;100.00;99608.66;4175481;28;20208;-51
2024/01/26 00:16:43;;;;;;;4.63;1.98;;;;;;;9.33;100.00;99600.66;4170192;28;20204;-50
2024/01/26 00:18:45;;;;;;;2.28;1.83;;;;;;;9.31;100.00;99598.16;4166801;28;20208;-50
2024/01/26 00:20:47;;;;;;;2.50;2.30;;;;;;;9.28;100.00;99603.22;4182823;28;20311;-50
2024/01/26 00:22:49;;;;;;;2.55;1.92;;;;;;;9.27;100.00;99594.16;4183644;28;20232;-50
2024/01/26 00:24:51;;;;;;;2.38;1.67;;;;;;;9.30;100.00;99599.22;4166820;28;20216;-51
2024/01/26 00:26:53;;;;;;;1.85;1.73;;;;;;;9.29;100.00;99600.25;4167077;28;20608;-51
2024/01/26 00:28:54;;;;;;;2.33;2.22;;;;;;;9.22;100.00;99604.06;4174731;28;20215;-50
2024/01/26 00:30:56;;;;;;;3.65;2.03;;;;;;;9.28;100.00;99598.56;4169268;28;20234;-51
2024/01/26 00:32:59;;;;;;;2.35;1.83;;;;;;;9.26;100.00;99595.22;4168888;28;20271;-49
2024/01/26 00:35:01;;;;;;;2.20;2.10;;;;;;;9.29;100.00;99596.69;4168837;28;20231;-51
2024/01/26 00:37:03;;;;;;;1.40;1.30;;;;;;;9.24;100.00;99599.22;4166296;28;20216;-51
2024/01/26 00:39:06;;;;;;;1.55;1.45;;;;;;;9.18;100.00;99597.34;4165987;28;20295;-49
2024/01/26 00:41:10;;;;;;;2.60;2.25;;;;;;;9.22;100.00;99595.88;4167578;28;20212;-51
2024/01/26 00:43:11;;;;;;;1.90;1.80;;;;;;;9.18;100.00;99589.16;4168437;28;20236;-50
2024/01/26 00:45:13;;;;;;;1.95;1.85;;;;;;;9.19;100.00;99599.88;4174672;28;20204;-51
2024/01/26 00:47:15;;;;;;;1.60;1.50;;;;;;;9.14;100.00;99593.41;4169922;28;20208;-51
2024/01/26 00:49:17;;;;;;;6.15;2.40;;;;;;;9.15;100.00;99592.34;4169007;28;20208;-52
2024/01/26 00:51:18;;;;;;;2.67;2.47;;;;;;;9.14;100.00;99593.41;4171654;28;20220;-51
2024/01/26 00:53:21;;;;;;;1.40;1.30;;;;;;;9.15;100.00;99592.34;4168111;28;20232;-52
2024/01/26 00:55:23;;;;;;;1.70;1.60;;;;;;;9.09;100.00;99582.25;4171668;28;20207;-51
2024/01/26 00:57:25;;;;;;;1.42;1.42;;;;;;;9.16;100.00;99580.34;4167651;28;20220;-50
2024/01/26 00:59:27;;;;;;;2.10;1.60;;;;;;;9.17;100.00;99576.56;4170812;28;20231;-51
2024/01/26 01:01:28;;;;;;;1.73;1.63;;;;;;;9.11;100.00;99571.97;4169224;28;20200;-50
2024/01/26 01:03:30;;;;;;;2.03;1.92;;;;;;;9.08;100.00;99564.22;4184316;28;20228;-50
2024/01/26 01:05:32;;;;;;;2.72;2.53;;;;;;;9.09;100.00;99560.41;4169963;28;20306;-50
2024/01/26 01:07:34;;;;;;;2.35;2.15;;;;;;;9.06;100.00;99561.69;4174860;28;20214;-49
2024/01/26 01:09:38;;;;;;;7.57;2.10;;;;;;;9.07;100.00;99562.50;4170392;28;20215;-51
2024/01/26 01:11:40;;;;;;;1.63;1.52;;;;;;;9.08;100.00;99558.75;4176181;28;20227;-50
2024/01/26 01:13:43;;;;;;;1.17;1.02;;;;;;;9.12;100.00;99559.97;4165675;28;20787;-51
2024/01/26 01:15:45;;;;;;;1.70;1.60;;;;;;;9.03;100.00;99561.28;4166013;28;20560;-51
2024/01/26 01:17:48;;;;;;;1.52;1.45;;;;;;;9.08;100.00;99569.69;4167591;28;20220;-51
2024/01/26 01:19:50;;;;;;;1.10;1.10;;;;;;;9.05;100.00;99565.47;4167528;28;20212;-50
2024/01/26 01:21:52;;;;;;;3.08;2.88;;;;;;;9.06;100.00;99563.56;4172790;28;20208;-52
2024/01/26 01:23:54;;;;;;;1.92;1.73;;;;;;;9.10;100.00;99573.03;4168470;28;20208;-50
2024/01/26 01:25:56;;;;;;;1.35;1.35;;;;;;;9.09;100.00;99571.34;4176408;28;20208;-50
2024/01/26 01:27:57;;;;;;;2.17;1.98;;;;;;;9.07;100.00;99567.97;4170261;28;21244;-50
2024/01/26 01:29:59;;;;;;;2.63;2.30;;;;;;;9.01;100.00;99563.41;4171267;28;20215;-51
2024/01/26 01:32:01;;;;;;;1.65;1.55;;;;;;;8.99;100.00;99566.34;4186328;28;20658;-52
2024/01/26 01:34:05;;;;;;;1.58;1.48;;;;;;;9.06;100.00;99569.03;4169051;28;20270;-52
2024/01/26 01:36:07;;;;;;;1.80;1.70;;;;;;;9.03;100.00;99572.19;4171148;28;20303;-50
2024/01/26 01:38:09;;;;;;;3.15;2.58;;;;;;;9.01;100.00;99577.03;4168718;28;20200;-52
2024/01/26 01:40:11;;;;;;;2.00;1.90;;;;;;;9.02;100.00;99570.53;4167838;28;20212;-51
2024/01/26 01:42:15;;;;;;;1.95;1.85;;;;;;;9.02;100.00;99570.53;4173502;28;20232;-51
2024/01/26 01:44:17;;;;;;;1.73;1.63;;;;;;;9.03;100.00;99567.56;4172506;28;20205;-51
2024/01/26 01:46:19;;;;;;;1.92;1.58;;;;;;;9.01;100.00;99569.69;4185646;28;20999;-51
2024/01/26 01:48:21;;;;;;;2.00;1.90;;;;;;;9.04;100.00;99571.16;4176097;28;20212;-52
2024/01/26 01:50:24;;;;;;;2.53;2.33;;;;;;;8.97;100.00;99573.91;4168949;28;20751;-52
2024/01/26 01:52:26;;;;;;;1.80;1.70;;;;;;;8.97;100.00;99575.78;4172346;28;20703;-51
2024/01/26 01:54:29;;;;;;;2.70;2.05;;;;;;;8.95;100.00;99580.63;4172838;28;20636;-51
2024/01/26 01:56:33;;;;;;;1.90;1.73;;;;;;;8.99;100.00;99581.84;4173690;28;20230;-51
2024/01/26 01:58:35;;;;;;;4.10;3.80;;;;;;;9.07;100.00;99578.88;4183159;28;20298;-51
2024/01/26 02:00:37;;;;;;;2.53;2.42;;;;;;;9.00;100.00;99567.16;4151188;28;20216;-51
2024/01/26 02:02:39;;;;;;;1.88;1.67;;;;;;;9.01;100.00;99566.13;4165291;28;20286;-51
2024/01/26 02:04:41;;;;;;;1.88;1.52;;;;;;;8.95;100.00;99569.72;4153342;28;20204;-51
2024/01/26 02:06:59;;;;;;;2.45;2.30;;;;;;;8.96;100.00;99558.56;4173375;28;20702;-52
2024/01/26 02:09:01;;;;;;;1.30;1.20;;;;;;;8.96;100.00;99560.47;4167521;28;20205;-50
2024/01/26 02:11:03;;;;;;;1.13;1.13;;;;;;;8.93;100.00;99550.81;4176716;28;20212;-51
2024/01/26 02:13:05;;;;;;;1.65;1.55;;;;;;;8.94;100.00;99557.13;4176885;28;20228;-51
2024/01/26 02:15:08;;;;;;;4.05;1.38;;;;;;;8.89;100.00;99552.28;4176150;28;20234;-52
2024/01/26 02:17:10;;;;;;;1.10;1.00;;;;;;;8.91;100.00;99546.63;4170253;28;20286;-50
2024/01/26 02:19:14;;;;;;;1.00;1.00;;;;;;;8.89;100.00;99548.72;4155784;28;20788;-52
2024/01/26 02:21:17;;;;;;;1.10;1.10;;;;;;;8.89;100.00;99557.72;4175408;28;20367;-51
2024/01/26 02:23:23;;;;;;;0.90;0.90;;;;;;;8.89;100.00;99546.00;4170750;28;20227;-51
2024/01/26 02:25:24;;;;;;;2.45;1.20;;;;;;;8.96;100.00;99549.53;4173964;28;20264;-50
2024/01/26 02:27:26;;;;;;;1.17;1.00;;;;;;;8.90;100.00;99550.41;4173491;28;20630;-50
2024/01/26 02:29:28;;;;;;;1.10;1.10;;;;;;;8.94;100.00;99543.47;4175514;28;20208;-51
2024/01/26 02:31:30;;;;;;;1.00;1.00;;;;;;;8.93;100.00;99548.06;4168623;28;20636;-51
2024/01/26 02:33:31;;;;;;;0.60;0.60;;;;;;;8.90;100.00;99544.94;4175955;28;20739;-51
2024/01/26 02:35:33;;;;;;;1.02;0.93;;;;;;;8.93;100.00;99539.03;4172268;28;20249;-50
2024/01/26 02:37:35;;;;;;;0.88;0.88;;;;;;;8.94;100.00;99541.56;4168841;28;20611;-50
2024/01/26 02:39:37;;;;;;;0.80;0.80;;;;;;;8.92;100.00;99545.56;4176736;28;20277;-50
2024/01/26 02:41:40;;;;;;;1.13;1.10;;;;;;;8.92;100.00;99549.13;4170890;28;20551;-51
2024/01/26 02:43:42;;;;;;;0.70;0.70;;;;;;;8.95;100.00;99547.88;4177280;28;20810;-50
2024/01/26 02:45:46;;;;;;;0.73;0.73;;;;;;;8.99;100.00;99549.09;4175169;28;20649;-51
2024/01/26 02:47:48;;;;;;;1.15;1.10;;;;;;;8.96;100.00;99538.63;4170369;28;20287;-51
2024/01/26 02:49:49;;;;;;;1.30;1.20;;;;;;;8.96;100.00;99539.44;4153717;28;20654;-51
2024/01/26 02:51:51;;;;;;;0.70;0.70;;;;;;;8.89;100.00;99537.81;4175046;28;20299;-50
2024/01/26 02:53:53;;;;;;;1.38;0.82;;;;;;;8.94;100.00;99540.75;4174112;28;20234;-51
2024/01/26 02:55:55;;;;;;;0.82;0.80;;;;;;;8.93;100.00;99534.44;4166059;28;20211;-50
2024/01/26 02:57:56;;;;;;;0.63;0.63;;;;;;;8.93;100.00;99536.31;4171163;28;20204;-51
2024/01/26 02:59:58;;;;;;;0.70;0.70;;;;;;;8.93;100.00;99539.03;4170053;28;20200;-50
2024/01/26 03:02:00;;;;;;;0.80;0.80;;;;;;;8.92;100.00;99538.22;4168976;28;20203;-50
2024/01/26 03:04:02;;;;;;;0.95;0.95;;;;;;;8.87;100.00;99528.97;4166192;28;20723;-50
2024/01/26 03:06:05;;;;;;;0.68;0.68;;;;;;;8.93;100.00;99523.50;4176116;28;20212;-50
2024/01/26 03:08:07;;;;;;;0.90;0.90;;;;;;;8.91;100.00;99525.63;4171400;28;20239;-51
2024/01/26 03:10:09;;;;;;;0.90;0.90;;;;;;;8.92;100.00;99521.84;4185054;28;20231;-50
2024/01/26 03:12:11;;;;;;;0.75;0.75;;;;;;;8.95;100.00;99526.03;4185030;28;20783;-50
2024/01/26 03:14:15;;;;;;;0.80;0.80;;;;;;;8.96;100.00;99522.25;4175650;28;20295;-51
2024/01/26 03:16:17;;;;;;;0.80;0.80;;;;;;;8.96;100.00;99516.78;4169682;28;20211;-51
2024/01/26 03:18:19;;;;;;;0.82;0.82;;;;;;;8.90;100.00;99517.66;4167889;28;20687;-51
2024/01/26 03:20:21;;;;;;;0.60;0.60;;;;;;;8.92;100.00;99518.25;4174426;28;20228;-50
2024/01/26 03:22:22;;;;;;;0.88;0.88;;;;;;;8.94;100.00;99513.44;4166984;28;20227;-50
2024/01/26 03:24:24;;;;;;;0.82;0.82;;;;;;;8.98;100.00;99510.06;4176008;28;20701;-50
2024/01/26 03:26:26;;;;;;;0.70;0.70;;;;;;;8.88;100.00;99514.31;4176556;28;20208;-51
2024/01/26 03:28:29;;;;;;;0.82;0.70;;;;;;;8.86;100.00;99519.97;4167896;28;20276;-51
2024/01/26 03:30:31;;;;;;;0.70;0.70;;;;;;;8.93;100.00;99517.19;4170944;28;20212;-49
2024/01/26 03:32:33;;;;;;;0.60;0.60;;;;;;;8.91;100.00;99520.16;4168286;28;20858;-50
2024/01/26 03:34:35;;;;;;;0.80;0.80;;;;;;;8.89;100.00;99511.34;4159637;28;20200;-50
2024/01/26 03:36:37;;;;;;;0.52;0.52;;;;;;;8.92;100.00;99516.38;4168189;28;20205;-50
2024/01/26 03:38:39;;;;;;;1.45;0.75;;;;;;;8.90;100.00;99507.53;4175747;28;20204;-51
2024/01/26 03:40:41;;;;;;;0.60;0.60;;;;;;;8.86;100.00;99505.47;4182989;28;20239;-51
2024/01/26 03:42:43;;;;;;;0.52;0.52;;;;;;;8.85;100.00;99510.09;4168402;28;20273;-51
2024/01/26 03:44:45;;;;;;;0.60;0.60;;;;;;;8.88;100.00;99504.19;4171642;28;20217;-51
2024/01/26 03:46:47;;;;;;;0.80;0.80;;;;;;;8.86;100.00;99510.94;4167954;28;20208;-51
2024/01/26 03:48:49;;;;;;;0.73;0.73;;;;;;;8.87;100.00;99509.88;4175811;28;20243;-50
2024/01/26 03:50:51;;;;;;;0.60;0.60;;;;;;;8.83;100.00;99498.53;4170292;28;20300;-50
2024/01/26 03:52:53;;;;;;;0.80;0.80;;;;;;;8.85;100.00;99504.66;4175739;28;20763;-50
2024/01/26 03:54:54;;;;;;;0.60;0.60;;;;;;;8.83;100.00;99504.00;4168909;28;20724;-51
2024/01/26 03:56:56;;;;;;;0.60;0.60;;;;;;;8.89;100.00;99510.50;4168489;28;20216;-51
2024/01/26 03:58:58;;;;;;;0.70;0.70;;;;;;;8.92;100.00;99505.47;4168392;28;20305;-51
2024/01/26 04:01:00;;;;;;;0.75;0.75;;;;;;;8.93;100.00;99517.19;4170529;28;20299;-51
2024/01/26 04:03:02;;;;;;;0.60;0.60;;;;;;;8.88;100.00;99509.66;4174514;28;20331;-50
2024/01/26 04:05:04;;;;;;;1.10;0.90;;;;;;;8.93;100.00;99512.59;4176792;28;20235;-50
2024/01/26 04:07:06;;;;;;;0.80;0.80;;;;;;;8.94;100.00;99518.91;4173333;28;20668;-50
2024/01/26 04:09:09;;;;;;;0.80;0.80;;;;;;;8.96;100.00;99517.59;4171214;28;20216;-51
2024/01/26 04:11:11;;;;;;;0.50;0.50;;;;;;;8.99;100.00;99516.34;4174275;28;20650;-50
2024/01/26 04:13:13;;;;;;;0.60;0.60;;;;;;;9.00;100.00;99515.28;4168035;28;20255;-50
2024/01/26 04:15:14;;;;;;;0.52;0.52;;;;;;;8.94;100.00;99508.81;4169403;28;20216;-50
2024/01/26 04:17:16;;;;;;;0.68;0.68;;;;;;;8.98;100.00;99520.13;4167334;28;20623;-50
2024/01/26 04:19:19;;;;;;;0.50;0.50;;;;;;;8.99;100.00;99521.81;4170679;28;20217;-50
2024/01/26 04:21:21;;;;;;;1.00;1.00;;;;;;;8.98;100.00;99525.59;4167821;28;20460;-50
2024/01/26 04:23:23;;;;;;;0.73;0.73;;;;;;;8.90;100.00;99520.38;4166206;28;20629;-51
2024/01/26 04:25:25;;;;;;;0.57;0.57;;;;;;;8.95;100.00;99515.13;4176486;28;20691;-49
2024/01/26 04:27:27;;;;;;;0.75;0.75;;;;;;;8.94;100.00;99527.09;4166184;28;20208;-51
2024/01/26 04:29:28;;;;;;;0.80;0.80;;;;;;;8.94;100.00;99529.81;4166803;28;20204;-50
2024/01/26 04:31:30;;;;;;;0.80;0.80;;;;;;;8.89;100.00;99527.72;4183316;28;20211;-50
2024/01/26 04:33:32;;;;;;;0.80;0.80;;;;;;;9.02;100.00;99526.84;4169164;28;20629;-50
2024/01/26 04:35:34;;;;;;;4.53;0.82;;;;;;;9.01;100.00;99525.19;4166102;28;20212;-50
2024/01/26 04:37:36;;;;;;;1.13;1.02;;;;;;;8.99;100.00;99527.25;4173623;28;20208;-50
2024/01/26 04:39:37;;;;;;;0.93;0.93;;;;;;;9.01;100.00;99519.72;4170457;28;20212;-50
2024/01/26 04:41:40;;;;;;;1.00;1.00;;;;;;;9.00;100.00;99526.19;4155898;28;20679;-49
2024/01/26 04:43:43;;;;;;;1.10;1.10;;;;;;;8.99;100.00;99508.16;4167540;28;20236;-50
2024/01/26 04:45:45;;;;;;;0.50;0.50;;;;;;;9.01;100.00;99508.78;4174409;28;20277;-51
2024/01/26 04:47:47;;;;;;;1.10;1.10;;;;;;;8.97;100.00;99507.53;4174972;28;20203;-51
2024/01/26 04:49:49;;;;;;;1.13;1.13;;;;;;;9.00;100.00;99507.09;4171886;28;20204;-50
2024/01/26 04:51:51;;;;;;;0.80;0.80;;;;;;;8.99;100.00;99500.81;4168911;28;20283;-51
2024/01/26 04:53:53;;;;;;;1.20;1.20;;;;;;;8.96;100.00;99505.88;4170150;28;20212;-51
2024/01/26 04:55:55;;;;;;;0.77;0.77;;;;;;;8.98;100.00;99501.03;4172036;28;20213;-51
2024/01/26 04:57:56;;;;;;;0.95;0.90;;;;;;;8.96;100.00;99501.22;4168430;28;20287;-50
2024/01/26 04:59:58;;;;;;;1.75;1.20;;;;;;;8.97;100.00;99494.75;4172380;28;20262;-50
2024/01/26 05:02:00;;;;;;;1.92;1.52;;;;;;;8.98;100.00;99501.03;4172910;28;20207;-50
2024/01/26 05:04:06;;;;;;;0.90;0.90;;;;;;;8.96;100.00;99494.94;4175693;28;20224;-51
2024/01/26 05:06:08;;;;;;;1.88;1.77;;;;;;;8.93;100.00;99503.56;4176749;28;20299;-51
2024/01/26 05:08:10;;;;;;;0.88;0.85;;;;;;;8.96;100.00;99503.97;4186893;28;20682;-50
2024/01/26 05:10:14;;;;;;;0.95;0.95;;;;;;;8.96;100.00;99500.41;4175177;28;20212;-50
2024/01/26 05:12:16;;;;;;;0.90;0.90;;;;;;;8.96;100.00;99494.94;4176952;28;20326;-50
2024/01/26 05:14:18;;;;;;;0.95;0.95;;;;;;;9.02;100.00;99502.28;4172010;28;20212;-51
2024/01/26 05:16:20;;;;;;;0.80;0.80;;;;;;;9.00;100.00;99502.47;4172105;28;20211;-50
2024/01/26 05:18:21;;;;;;;0.93;0.93;;;;;;;9.00;100.00;99502.47;4173718;28;20262;-49
2024/01/26 05:20:23;;;;;;;1.15;1.15;;;;;;;9.03;100.00;99501.22;4186875;28;20597;-50
2024/01/26 05:22:25;;;;;;;3.47;1.00;;;;;;;9.01;100.00;99508.78;4171243;28;20224;-51
2024/01/26 05:24:27;;;;;;;1.08;0.90;;;;;;;9.04;100.00;99506.47;4152492;28;20228;-48
2024/01/26 05:26:29;;;;;;;1.15;1.05;;;;;;;9.07;100.00;99510.63;4174717;28;20208;-49
2024/01/26 05:28:31;;;;;;;1.20;1.10;;;;;;;9.09;100.00;99508.53;4187216;28;20644;-51
2024/01/26 05:30:33;;;;;;;1.30;1.20;;;;;;;9.07;100.00;99514.22;4170650;28;20299;-50
2024/01/26 05:32:34;;;;;;;1.77;1.67;;;;;;;9.07;100.00;99529.75;4171950;28;20285;-50
2024/01/26 05:34:36;;;;;;;0.95;0.95;;;;;;;9.03;100.00;99528.53;4175871;28;20231;-51
2024/01/26 05:36:40;;;;;;;1.55;1.45;;;;;;;9.05;100.00;99531.88;4186991;28;20718;-50
2024/01/26 05:38:42;;;;;;;1.50;1.02;;;;;;;9.08;100.00;99526.81;4187483;28;20840;-50
2024/01/26 05:40:45;;;;;;;1.25;1.20;;;;;;;9.04;100.00;99524.72;4188444;28;20282;-50
2024/01/26 05:42:47;;;;;;;1.27;1.27;;;;;;;8.99;100.00;99521.81;4175234;28;20220;-50
2024/01/26 05:44:49;;;;;;;3.17;1.33;;;;;;;9.00;100.00;99526.19;4188956;28;20202;-49
2024/01/26 05:46:50;;;;;;;1.45;1.35;;;;;;;9.00;100.00;99523.47;4172072;28;20616;-49
2024/01/26 05:48:52;;;;;;;1.50;1.40;;;;;;;9.01;100.00;99525.19;4174327;28;20216;-50
2024/01/26 05:50:54;;;;;;;2.00;1.90;;;;;;;9.00;100.00;99534.38;4189671;28;20200;-49
2024/01/26 05:52:56;;;;;;;1.33;1.23;;;;;;;9.06;100.00;99528.06;4169955;28;20224;-48
2024/01/26 05:54:58;;;;;;;1.67;1.58;;;;;;;8.98;100.00;99531.91;4186799;28;20296;-50
2024/01/26 05:57:01;;;;;;;1.70;1.60;;;;;;;8.99;100.00;99533.56;4169884;28;20230;-49
2024/01/26 05:59:02;;;;;;;1.63;1.52;;;;;;;8.99;100.00;99532.72;4175369;28;20212;-49
2024/01/26 06:01:04;;;;;;;1.25;1.15;;;;;;;9.07;100.00;99529.75;4171129;28;20700;-50
2024/01/26 06:03:06;;;;;;;1.83;1.73;;;;;;;9.03;100.00;99529.34;4175539;28;20705;-51
2024/01/26 06:05:08;;;;;;;1.40;1.30;;;;;;;9.04;100.00;99531.03;4185670;28;20228;-50
2024/01/26 06:07:10;;;;;;;1.60;1.50;;;;;;;9.03;100.00;99528.53;4168228;28;20600;-50
2024/01/26 06:09:12;;;;;;;1.80;1.70;;;;;;;9.01;100.00;99525.19;4174044;28;20239;-50
2024/01/26 06:11:14;;;;;;;2.03;1.92;;;;;;;9.04;100.00;99522.00;4171687;28;20260;-51
2024/01/26 06:13:16;;;;;;;2.38;2.25;;;;;;;9.01;100.00;99517.81;4172871;28;21154;-50
2024/01/26 06:15:18;;;;;;;2.90;1.60;;;;;;;9.01;100.00;99514.25;4177356;28;20223;-51
2024/01/26 06:17:19;;;;;;;1.80;1.70;;;;;;;9.02;100.00;99510.47;4176288;28;20572;-51
2024/01/26 06:19:21;;;;;;;1.75;1.65;;;;;;;9.00;100.00;99512.56;4171870;28;20765;-50
2024/01/26 06:21:23;;;;;;;1.75;1.65;;;;;;;9.04;100.00;99508.34;4170020;28;20294;-49
2024/01/26 06:23:25;;;;;;;1.70;1.60;;;;;;;9.06;100.00;99506.22;4172359;28;20259;-49
2024/01/26 06:25:29;;;;;;;1.77;1.63;;;;;;;9.04;100.00;99497.44;4172042;28;20212;-50
2024/01/26 06:27:31;;;;;;;1.38;1.30;;;;;;;9.03;100.00;99498.50;4168294;28;20692;-49
2024/01/26 06:29:33;;;;;;;2.72;1.65;;;;;;;8.98;100.00;99487.38;4170298;28;20211;-51
2024/01/26 06:31:35;;;;;;;1.70;1.60;;;;;;;9.02;100.00;99496.81;4182857;28;20203;-50
2024/01/26 06:33:37;;;;;;;2.38;2.17;;;;;;;9.09;100.00;99495.72;4170499;28;20224;-50
2024/01/26 06:35:39;;;;;;;1.23;1.13;;;;;;;9.02;100.00;99488.63;4170516;28;20561;-50
2024/01/26 06:37:40;;;;;;;1.63;1.52;;;;;;;9.05;100.00;99496.38;4171784;28;20240;-49
2024/01/26 06:39:42;;;;;;;1.92;1.83;;;;;;;9.02;100.00;99494.91;4187261;28;20206;-49
2024/01/26 06:41:44;;;;;;;1.55;1.45;;;;;;;9.08;100.00;99501.41;4172995;28;20228;-50
2024/01/26 06:43:51;;;;;;;3.35;1.70;;;;;;;9.12;100.00;99499.91;4176271;28;20805;-50
2024/01/26 06:45:52;;;;;;;2.08;1.95;;;;;;;9.14;100.00;99498.63;4170312;28;20232;-50
2024/01/26 06:47:54;;;;;;;2.10;1.40;;;;;;;9.09;100.00;99498.44;4174721;28;21011;-50
2024/01/26 06:49:56;;;;;;;2.25;1.60;;;;;;;9.16;100.00;99495.69;4172867;28;20204;-50
2024/01/26 06:51:58;;;;;;;2.25;2.00;;;;;;;9.11;100.00;99490.03;4188886;28;20257;-50
2024/01/26 06:54:01;;;;;;;2.35;2.00;;;;;;;9.11;100.00;99492.78;4185944;28;20638;-49
2024/01/26 06:56:04;;;;;;;1.70;1.60;;;;;;;9.15;100.00;99485.84;4172924;28;20294;-50
2024/01/26 06:58:05;;;;;;;1.27;1.17;;;;;;;9.11;100.00;99482.72;4174394;28;20204;-50
2024/01/26 07:00:09;;;;;;;1.60;1.50;;;;;;;9.10;100.00;99480.19;4170369;28;20281;-50
2024/01/26 07:02:11;;;;;;;1.90;1.80;;;;;;;9.13;100.00;99490.66;4166900;28;20283;-49
2024/01/26 07:04:13;;;;;;;1.58;1.48;;;;;;;9.12;100.00;99489.00;4173963;28;20848;-50
2024/01/26 07:06:15;;;;;;;1.50;1.40;;;;;;;9.06;100.00;99501.63;4169196;28;20204;-49
2024/01/26 07:08:16;;;;;;;1.63;1.52;;;;;;;9.03;100.00;99501.22;4176526;28;20246;-49
2024/01/26 07:10:18;;;;;;;1.50;1.40;;;;;;;9.12;100.00;99499.91;4180759;28;20254;-50
2024/01/26 07:12:20;;;;;;;1.88;1.70;;;;;;;9.13;100.00;99507.03;4174517;28;20229;-49
2024/01/26 07:14:22;;;;;;;1.48;1.38;;;;;;;9.12;100.00;99505.38;4173195;28;20229;-50
2024/01/26 07:16:23;;;;;;;1.48;1.38;;;;;;;9.11;100.00;99503.69;4175482;28;20207;-50
2024/01/26 07:18:25;;;;;;;2.13;2.03;;;;;;;9.13;100.00;99507.03;4166481;28;20635;-50
2024/01/26 07:20:27;;;;;;;8.57;1.45;;;;;;;9.13;100.00;99498.84;4172244;28;20219;-50
2024/01/26 07:22:29;;;;;;;2.00;1.67;;;;;;;9.14;100.00;99497.81;4170405;28;20224;-49
2024/01/26 07:24:31;;;;;;;1.50;1.40;;;;;;;9.14;100.00;99470.50;4186115;28;20261;-50
2024/01/26 07:26:33;;;;;;;1.67;1.55;;;;;;;9.13;100.00;99452.44;4171326;28;20208;-50
2024/01/26 07:28:35;;;;;;;3.30;1.77;;;;;;;9.14;100.00;99465.06;4171183;28;20204;-49
2024/01/26 07:30:36;;;;;;;1.27;1.20;;;;;;;9.13;100.00;99482.47;4169348;28;20224;-50
2024/01/26 07:32:38;;;;;;;2.30;1.58;;;;;;;9.09;100.00;99484.78;4171332;28;20697;-50
2024/01/26 07:34:40;;;;;;;1.75;1.52;;;;;;;9.13;100.00;99493.38;4168095;28;20204;-49
2024/01/26 07:36:43;;;;;;;2.13;1.92;;;;;;;9.12;100.00;99495.31;4171248;28;20204;-51
2024/01/26 07:38:44;;;;;;;1.33;1.23;;;;;;;9.18;100.00;99499.03;4169649;28;20212;-50
2024/01/26 07:40:46;;;;;;;1.42;1.30;;;;;;;9.13;100.00;99498.84;4178600;28;20204;-50
2024/01/26 07:42:48;;;;;;;2.33;2.22;;;;;;;9.11;100.00;99500.97;4174739;28;20259;-50
2024/01/26 07:44:50;;;;;;;2.38;2.25;;;;;;;9.09;100.00;99505.81;4170050;28;20675;-50
2024/01/26 07:46:51;;;;;;;1.63;1.52;;;;;;;9.13;100.00;99498.84;4169270;28;20312;-51
2024/01/26 07:48:53;;;;;;;1.35;1.23;;;;;;;9.16;100.00;99495.69;4170318;28;20208;-52
2024/01/26 07:50:55;;;;;;;1.90;1.80;;;;;;;9.10;100.00;99488.38;4186285;28;20207;-50
2024/01/26 07:52:57;;;;;;;1.20;1.20;;;;;;;9.14;100.00;99495.09;4169854;28;20231;-52
2024/01/26 07:54:59;;;;;;;2.08;1.77;;;;;;;9.11;100.00;99493.63;4173705;28;20295;-50
2024/01/26 07:57:01;;;;;;;2.05;1.95;;;;;;;9.10;100.00;99489.22;4170330;28;20216;-50
2024/01/26 07:59:03;;;;;;;2.05;1.38;;;;;;;9.11;100.00;99496.34;4171586;28;20694;-50
2024/01/26 08:01:05;;;;;;;1.15;1.05;;;;;;;9.12;100.00;99491.72;4151426;28;20670;-48
2024/01/26 08:03:07;;;;;;;1.70;1.50;;;;;;;9.12;100.00;99489.00;4172618;28;20725;-51
2024/01/26 08:05:10;;;;;;;3.47;1.63;;;;;;;9.11;100.00;99487.31;4173365;28;20588;-51
2024/01/26 08:07:14;;;;;;;1.25;1.15;;;;;;;9.11;100.00;99470.94;4168687;28;20212;-50
2024/01/26 08:09:16;;;;;;;1.25;1.23;;;;;;;9.08;100.00;99474.94;4158605;28;20235;-51
2024/01/26 08:11:19;;;;;;;1.88;1.77;;;;;;;9.12;100.00;99478.91;4183123;28;20674;-50
2024/01/26 08:13:21;;;;;;;1.00;1.00;;;;;;;9.14;100.00;99467.78;4172615;28;20236;-49
2024/01/26 08:15:22;;;;;;;1.85;1.75;;;;;;;9.12;100.00;99472.59;4172451;28;20212;-50
2024/01/26 08:17:24;;;;;;;1.15;1.15;;;;;;;9.13;100.00;99466.09;4184962;28;20210;-50
2024/01/26 08:19:26;;;;;;;1.35;1.15;;;;;;;9.13;100.00;99469.66;4185315;28;20214;-51
2024/01/26 08:21:30;;;;;;;1.55;1.45;;;;;;;9.11;100.00;99468.19;4165903;28;20213;-50
2024/01/26 08:23:33;;;;;;;1.30;1.27;;;;;;;9.15;100.00;99461.25;4166759;28;20642;-49
2024/01/26 08:25:35;;;;;;;1.42;1.33;;;;;;;9.16;100.00;99450.09;4187689;28;20277;-50
2024/01/26 08:27:37;;;;;;;1.65;1.55;;;;;;;9.17;100.00;99451.81;4173596;28;20274;-51
2024/01/26 08:29:39;;;;;;;1.15;1.05;;;;;;;9.18;100.00;99455.34;4167727;28;20215;-50
2024/01/26 08:31:41;;;;;;;1.10;1.10;;;;;;;9.16;100.00;99444.63;4173618;28;20277;-50
2024/01/26 08:33:43;;;;;;;1.17;1.17;;;;;;;9.19;100.00;99451.56;4168308;28;20223;-51
2024/01/26 08:35:45;;;;;;;1.30;1.25;;;;;;;9.19;100.00;99435.19;4172369;28;20236;-52
2024/01/26 08:37:48;;;;;;;1.42;1.35;;;;;;;9.21;100.00;99447.56;4172032;28;20204;-50
2024/01/26 08:39:50;;;;;;;2.13;1.92;;;;;;;9.25;100.00;99440.63;4168072;28;20203;-51
2024/01/26 08:41:51;;;;;;;2.25;1.58;;;;;;;9.23;100.00;99431.78;4173823;28;20218;-50
2024/01/26 08:43:53;;;;;;;1.85;1.75;;;;;;;9.28;100.00;99434.72;4172008;28;20578;-51
2024/01/26 08:45:55;;;;;;;1.40;1.20;;;;;;;9.30;100.00;99431.75;4170265;28;20275;-51
2024/01/26 08:47:57;;;;;;;2.85;1.88;;;;;;;9.28;100.00;99425.69;4173868;28;20248;-50
2024/01/26 08:49:59;;;;;;;1.50;1.40;;;;;;;9.27;100.00;99418.53;4170115;28;20740;-50
2024/01/26 08:52:01;;;;;;;1.65;1.55;;;;;;;9.30;100.00;99418.09;4168001;28;20266;-50
2024/01/26 08:54:03;;;;;;;1.52;1.45;;;;;;;9.33;100.00;99412.19;4171797;28;20310;-50
2024/01/26 08:56:05;;;;;;;1.20;1.17;;;;;;;9.34;100.00;99411.16;4178345;28;20243;-49
2024/01/26 08:58:07;;;;;;;1.38;1.27;;;;;;;9.35;100.00;99408.19;4156585;28;20292;-49
2024/01/26 09:00:12;;;;;;;1.80;1.70;;;;;;;9.35;100.00;99412.84;4156642;28;20209;-50
2024/01/26 09:02:14;;;;;;;1.52;1.42;;;;;;;9.35;100.00;99410.09;4153744;28;20220;-50
2024/01/26 09:04:16;;;;;;;0.95;0.88;;;;;;;9.38;100.00;99412.38;4154784;28;20197;-50
2024/01/26 09:06:18;;;;;;;1.27;1.27;;;;;;;9.35;100.00;99418.28;4152412;28;20740;-48
2024/01/26 09:08:20;;;;;;;1.13;1.05;;;;;;;9.39;100.00;99414.91;4152791;28;20215;-49
2024/01/26 09:10:24;;;;;;;1.20;1.20;;;;;;;9.39;100.00;99411.31;4168206;28;20271;-49
2024/01/26 09:12:25;;;;;;;1.20;1.10;;;;;;;9.42;100.00;99402.69;4154568;28;20666;-49
2024/01/26 09:14:28;;;;;;;1.38;1.38;;;;;;;9.38;100.00;99402.31;4153827;28;20259;-50
2024/01/26 09:16:30;;;;;;;1.20;1.20;;;;;;;9.42;100.00;99397.22;4155210;28;20697;-50
2024/01/26 09:18:32;;;;;;;1.00;1.00;;;;;;;9.41;100.00;99390.91;4155594;28;20737;-51
2024/01/26 09:20:48;;;;;;;1.95;1.63;;;;;;;9.47;100.00;99389.19;4156273;28;20238;-50
2024/01/26 09:22:50;;;;;;;3.50;1.00;;;;;;;9.47;100.00;99400.13;4156389;28;20276;-51
2024/01/26 09:24:52;;;;;;;1.10;1.05;;;;;;;9.53;100.00;99399.22;4157734;28;20296;-49
2024/01/26 09:26:55;;;;;;;1.08;1.00;;;;;;;9.50;100.00;99399.69;4168571;28;20200;-50
2024/01/26 09:28:57;;;;;;;0.98;0.98;;;;;;;9.51;100.00;99401.34;4158307;28;20655;-50
2024/01/26 09:30:59;;;;;;;1.38;1.35;;;;;;;9.52;100.00;99397.56;4169440;28;20262;-50
2024/01/26 09:33:01;;;;;;;1.45;1.35;;;;;;;9.53;100.00;99404.69;4171947;28;20273;-50
2024/01/26 09:35:04;;;;;;;1.38;1.27;;;;;;;9.51;100.00;99395.88;4170136;28;20226;-50